This is the latest recevied weather packets stored in our database for station/object LRTR. If no packets are shown the sender has not sent any weather packets the latest 10 day(s).
| Time | Temp. | Humidity | Pressure | Rain* | Wind** | Luminosity | Snow |
|---|---|---|---|---|---|---|---|
| 1778098685 | 12.78° C | 82% | 1011 hPa | - | - | - | - |
| 1778097785 | 12.78° C | 82% | 1011 hPa | - | - | - | - |
| 1778096904 | 12.78° C | 82% | 1011 hPa | - | - | - | - |
| 1778096009 | 12.78° C | 82% | 1011 hPa | - | - | - | - |
| 1778095086 | 13.89° C | 82% | 1011 hPa | - | - | - | - |
| 1778094185 | 13.89° C | 82% | 1011 hPa | - | - | - | - |
| 1778093290 | 16.11° C | 72% | 1011 hPa | - | - | - | - |
| 1778092385 | 16.11° C | 72% | 1011 hPa | - | - | - | - |
| 1778091485 | 18.89° C | 60% | 1010 hPa | - | - | - | - |
| 1778090585 | 18.89° C | 60% | 1010 hPa | - | - | - | - |
| 1778089685 | 22.78° C | 38% | 1010 hPa | - | - | - | - |
| 1778088785 | 22.78° C | 38% | 1010 hPa | - | - | - | - |
| 1778087885 | 23.89° C | 36% | 1010 hPa | - | - | - | - |
| 1778086985 | 23.89° C | 36% | 1010 hPa | - | - | - | - |
| 1778086085 | 23.89° C | 36% | 1010 hPa | - | - | - | - |
| 1778085185 | 23.89° C | 36% | 1010 hPa | - | - | - | - |
| 1778084285 | 25° C | 32% | 1011 hPa | - | - | - | - |
| 1778083385 | 25° C | 32% | 1011 hPa | - | - | - | - |
| 1778082486 | 25° C | 32% | 1011 hPa | - | - | - | - |
| 1778081585 | 25° C | 32% | 1011 hPa | - | - | - | - |
| 1778080685 | 26.11° C | 30% | 1011 hPa | - | - | - | - |
| 1778079791 | 26.11° C | 30% | 1011 hPa | - | - | - | - |
| 1778078885 | 25° C | 32% | 1011 hPa | - | - | - | - |
| 1778077997 | 25° C | 32% | 1011 hPa | - | - | - | - |
| 1778077085 | 26.11° C | 30% | 1011 hPa | - | - | - | - |
* Rain since midnight (hover to see other rain measurements)
** Current wind speed in m/s (hover to see current wind gust speed)